createdAt,value
2019-05-02T00:04:12.375Z,16.07
2019-05-02T00:12:30.935Z,14.23
2019-05-02T00:20:48.501Z,14.43
2019-05-02T00:29:06.005Z,15.60
2019-05-02T00:37:24.584Z,15.60
2019-05-02T00:45:42.643Z,15.10
2019-05-02T00:54:00.076Z,15.90
2019-05-02T01:02:26.525Z,14.10
2019-05-02T01:10:44.027Z,14.58
2019-05-02T01:19:01.550Z,16.50
2019-05-02T01:27:44.004Z,14.10
2019-05-02T01:36:08.815Z,14.73
2019-05-02T01:44:26.329Z,14.70
2019-05-02T01:52:43.810Z,15.13
2019-05-02T02:01:01.410Z,13.00
2019-05-02T02:09:18.855Z,15.13
2019-05-02T02:17:36.288Z,14.60
2019-05-02T02:25:57.729Z,15.80
2019-05-02T02:34:21.403Z,13.63
2019-05-02T02:42:34.947Z,12.23
2019-05-02T02:50:52.562Z,13.00
2019-05-02T02:59:10.112Z,13.30
2019-05-02T03:07:28.982Z,14.87
2019-05-02T03:15:50.582Z,12.73
2019-05-02T03:24:08.037Z,13.03
2019-05-02T03:32:33.120Z,10.20
2019-05-02T03:40:44.837Z,10.83
2019-05-02T03:49:07.840Z,12.30
2019-05-02T03:57:32.404Z,11.13
2019-05-02T04:05:42.242Z,10.40
2019-05-02T04:14:00.032Z,11.13
2019-05-02T04:22:17.974Z,11.07
2019-05-02T04:30:35.848Z,11.03
2019-05-02T04:38:53.380Z,11.33
2019-05-02T04:47:17.065Z,11.57
2019-05-02T04:55:33.202Z,11.13
2019-05-02T05:03:57.415Z,12.17
2019-05-02T05:12:09.000Z,11.10
2019-05-02T05:20:28.016Z,9.20
2019-05-02T05:28:50.650Z,8.30
2019-05-02T05:37:09.411Z,8.23
2019-05-02T05:45:24.646Z,7.87
2019-05-02T05:53:42.097Z,7.73
2019-05-02T06:02:00.205Z,7.50
2019-05-02T06:10:17.691Z,9.07
2019-05-02T06:18:36.510Z,8.40
2019-05-02T06:26:54.627Z,9.73
2019-05-02T06:35:17.106Z,9.10
2019-05-02T06:43:31.967Z,11.23
2019-05-02T06:51:51.029Z,9.95
2019-05-02T07:00:10.154Z,14.30
2019-05-02T07:08:28.855Z,10.47
2019-05-02T07:17:05.360Z,9.70
2019-05-02T07:25:48.216Z,11.50
2019-05-02T07:34:07.955Z,10.50
2019-05-02T07:42:24.877Z,10.47
2019-05-02T07:50:46.579Z,11.47
2019-05-02T07:59:01.521Z,11.67
2019-05-02T08:07:21.113Z,12.87
2019-05-02T08:15:38.257Z,14.10
2019-05-02T08:23:57.161Z,13.67
2019-05-02T08:32:14.908Z,14.30
2019-05-02T08:40:32.650Z,13.53
2019-05-02T08:57:49.585Z,14.93
2019-05-02T09:15:06.397Z,15.90
2019-05-02T09:23:27.565Z,11.93
2019-05-02T09:31:46.030Z,14.83
2019-05-02T09:40:17.001Z,14.17
2019-05-02T09:48:34.569Z,16.67
2019-05-02T09:56:52.515Z,13.80
2019-05-02T10:14:11.783Z,17.97
2019-05-02T10:22:33.723Z,14.80
2019-05-02T10:30:52.700Z,15.95
2019-05-02T10:39:08.075Z,17.40
2019-05-02T10:47:25.605Z,17.83
2019-05-02T10:55:43.201Z,17.50
2019-05-02T11:04:02.173Z,18.30
2019-05-02T11:12:41.926Z,17.05
2019-05-02T11:20:49.885Z,16.63
2019-05-02T11:29:07.364Z,14.83
2019-05-02T11:37:24.836Z,15.60
2019-05-02T11:45:42.518Z,17.57
2019-05-02T11:54:07.600Z,15.73
2019-05-02T12:02:38.688Z,17.13
2019-05-02T12:11:01.228Z,16.67
2019-05-02T12:19:18.738Z,17.37
2019-05-02T12:27:36.192Z,15.23
2019-05-02T12:35:53.699Z,16.90
2019-05-02T12:44:11.726Z,17.20
2019-05-02T12:52:29.500Z,18.20
2019-05-02T13:00:47.086Z,15.17
2019-05-02T13:09:07.460Z,14.20
2019-05-02T13:17:24.899Z,12.30
2019-05-02T13:25:43.555Z,13.83
2019-05-02T13:34:15.664Z,11.63
2019-05-02T13:51:22.215Z,12.50
2019-05-02T13:59:41.542Z,13.33
2019-05-02T14:08:16.272Z,11.80
2019-05-02T14:16:34.015Z,12.53
2019-05-02T14:24:52.000Z,13.83
2019-05-02T14:33:15.316Z,12.63
2019-05-02T14:41:40.884Z,17.70
2019-05-02T14:49:52.304Z,14.90
2019-05-02T14:58:09.904Z,16.53
2019-05-02T15:06:47.556Z,16.03
2019-05-02T15:15:05.857Z,16.47
2019-05-02T15:23:57.995Z,16.10
2019-05-02T15:32:25.444Z,19.27
2019-05-02T15:41:07.096Z,19.70
2019-05-02T15:49:22.814Z,18.82
2019-05-02T15:57:43.722Z,17.50
2019-05-02T16:05:59.473Z,20.53
2019-05-02T16:14:16.991Z,21.70
2019-05-02T16:22:38.176Z,22.07
2019-05-02T16:30:56.267Z,23.73
2019-05-02T16:39:15.378Z,23.15
2019-05-02T16:47:33.153Z,21.70
2019-05-02T16:55:50.624Z,20.67
2019-05-02T17:04:08.077Z,19.77
2019-05-02T17:12:25.872Z,22.33
2019-05-02T17:20:46.821Z,24.90
2019-05-02T17:29:02.994Z,26.87
2019-05-02T17:37:21.643Z,22.90
2019-05-02T17:45:40.283Z,26.77
2019-05-02T17:53:58.015Z,32.60
2019-05-02T18:02:16.035Z,30.00
2019-05-02T18:10:34.084Z,31.60
2019-05-02T18:18:52.223Z,34.60
2019-05-02T18:27:10.096Z,32.83
2019-05-02T18:35:27.720Z,35.47
2019-05-02T18:43:45.454Z,32.23
2019-05-02T18:52:03.112Z,33.47
2019-05-02T19:00:22.749Z,30.83
2019-05-02T19:08:46.824Z,34.23
2019-05-02T19:17:03.710Z,37.07
2019-05-02T19:25:20.434Z,32.97
2019-05-02T19:33:42.613Z,32.67
2019-05-02T19:41:57.801Z,28.87
2019-05-02T19:50:34.732Z,32.43
2019-05-02T19:58:51.802Z,25.80
2019-05-02T20:07:09.353Z,25.57
2019-05-02T20:15:30.227Z,23.70
2019-05-02T20:23:47.448Z,22.57
2019-05-02T20:32:04.927Z,20.80
2019-05-02T20:40:26.546Z,16.20
2019-05-02T20:48:44.542Z,9.33
2019-05-02T20:57:02.559Z,9.80
2019-05-02T21:05:22.720Z,17.70
2019-05-02T21:13:41.857Z,11.10
2019-05-02T21:22:01.685Z,12.80
2019-05-02T21:30:24.690Z,13.33
2019-05-02T21:38:42.732Z,14.90
2019-05-02T21:47:02.484Z,12.70
2019-05-02T21:55:42.883Z,9.80
2019-05-02T22:04:02.290Z,10.47
2019-05-02T22:12:19.939Z,5.40
2019-05-02T22:20:37.474Z,6.50
2019-05-02T22:28:54.940Z,6.30
2019-05-02T22:37:14.008Z,4.63
2019-05-02T22:45:32.226Z,4.93
2019-05-02T22:53:49.828Z,5.45
2019-05-02T23:02:07.260Z,4.43
2019-05-02T23:10:24.783Z,3.90
2019-05-02T23:18:42.598Z,4.07
2019-05-02T23:27:16.817Z,3.30
2019-05-02T23:35:34.416Z,3.40
2019-05-02T23:43:52.529Z,3.97
2019-05-02T23:52:11.662Z,3.50
